Time;durP1;ratioP1;P1;durP2;ratioP2;P2;SDS_P1;SDS_P2;PMS_P1;PMS_P2;Temp;Humidity;BMP_temperature;BMP_pressure;BME280_temperature;BME280_humidity;BME280_pressure;Samples;Min_cycle;Max_cycle;Signal;HPM_P1;HPM_P2
2022/03/30 00:01:59;;;;;;;;;74.00;60.50;;;;;16.69;28.09;98658.34;5071384;28;9981;-78
2022/03/30 00:04:28;;;;;;;;;75.50;59.25;;;;;16.67;28.63;98660.19;5089363;28;9873;-73
2022/03/30 00:06:57;;;;;;;;;75.50;62.00;;;;;16.67;28.38;98657.56;5088891;28;9868;-74
2022/03/30 00:09:25;;;;;;;;;73.00;58.50;;;;;16.65;28.35;98659.38;5085041;28;9843;-74
2022/03/30 00:11:56;;;;;;;;;75.50;62.25;;;;;16.63;28.82;98666.47;5049568;28;9696;-74
2022/03/30 00:14:24;;;;;;;;;71.75;56.50;;;;;16.61;28.83;98662.19;5049781;28;10012;-73
2022/03/30 00:16:54;;;;;;;;;74.00;58.75;;;;;16.44;28.73;98660.22;5049688;28;9707;-75
2022/03/30 00:19:23;;;;;;;;;74.75;60.00;;;;;16.44;28.85;98654.97;5066754;28;9783;-74
2022/03/30 00:21:52;;;;;;;;;73.25;58.25;;;;;16.41;28.94;98657.69;5049727;28;9897;-74
2022/03/30 00:24:20;;;;;;;;;77.50;64.50;;;;;16.38;28.87;98654.28;5035947;28;9975;-75
2022/03/30 00:26:49;;;;;;;;;70.75;56.25;;;;;16.33;29.24;98669.41;5046604;28;10055;-74
2022/03/30 00:29:18;;;;;;;;;77.25;61.50;;;;;16.32;29.54;98666.81;5029563;28;9866;-74
2022/03/30 00:31:46;;;;;;;;;73.75;60.00;;;;;16.29;29.32;98662.50;5046146;28;9966;-74
2022/03/30 00:34:16;;;;;;;;;75.25;58.75;;;;;16.25;29.66;98658.28;5046150;28;9644;-74
2022/03/30 00:36:45;;;;;;;;;73.75;57.25;;;;;16.21;29.74;98659.34;5064683;28;9621;-76
2022/03/30 00:39:16;;;;;;;;;75.00;60.00;;;;;16.17;30.10;98661.22;5066173;28;9704;-74
2022/03/30 00:41:45;;;;;;;;;72.75;57.75;;;;;16.14;29.76;98663.09;5027812;28;9781;-74
2022/03/30 00:44:15;;;;;;;;;76.25;59.00;;;;;16.08;29.80;98664.19;5087039;28;9539;-73
2022/03/30 00:46:47;;;;;;;;;69.67;57.33;;;;;15.98;29.91;98662.81;5088622;28;10351;-76
2022/03/30 00:49:18;;;;;;;;;70.00;56.00;;;;;15.96;30.07;98662.03;5070559;28;9501;-75
2022/03/30 00:51:46;;;;;;;;;70.67;55.67;;;;;15.93;30.14;98656.88;5070458;28;9588;-74
2022/03/30 00:54:16;;;;;;;;;69.67;54.33;;;;;15.90;30.07;98651.75;5088698;28;9521;-73
2022/03/30 00:56:45;;;;;;;;;69.00;55.67;;;;;15.90;30.43;98662.25;5089011;28;9196;-73
2022/03/30 00:59:14;;;;;;;;;70.33;57.00;;;;;15.90;30.42;98660.47;5089055;28;9258;-73
2022/03/30 01:01:43;;;;;;;;;66.00;52.67;;;;;15.86;30.39;98660.63;5081123;28;9485;-73
2022/03/30 01:04:12;;;;;;;;;70.33;56.33;;;;;15.83;30.51;98658.97;5107347;28;9335;-73
2022/03/30 01:06:42;;;;;;;;;59.67;49.33;;;;;15.84;30.75;98663.34;5108733;28;9340;-73
2022/03/30 01:09:11;;;;;;;;;75.00;58.00;;;;;15.81;30.70;98660.81;5108817;28;9391;-75
2022/03/30 01:11:39;;;;;;;;;70.67;55.67;;;;;15.77;30.97;98661.84;5107125;28;9395;-75
2022/03/30 01:14:09;;;;;;;;;69.67;57.67;;;;;15.74;30.69;98660.16;5036594;28;9401;-77
2022/03/30 01:16:37;;;;;;;;;70.00;56.33;;;;;15.72;30.91;98664.59;5087294;28;9340;-75
2022/03/30 01:19:08;;;;;;;;;68.33;54.33;;;;;15.71;31.04;98654.16;5070719;28;9448;-73
2022/03/30 01:21:40;;;;;;;;;69.00;55.67;;;;;15.69;31.11;98648.94;5020148;28;10140;-73
2022/03/30 01:24:12;;;;;;;;;69.00;55.00;;;;;15.67;31.23;98650.78;5070243;28;9339;-73
2022/03/30 01:26:41;;;;;;;;;72.00;57.00;;;;;15.62;31.30;98642.19;5087298;28;9271;-74
2022/03/30 01:34:45;;;;;;;;;69.00;56.33;;;;;15.52;31.92;98651.28;4987860;28;9339;-75
2022/03/30 01:37:16;;;;;;;;;71.33;56.67;;;;;15.51;31.97;98644.34;5028983;28;9271;-74
2022/03/30 01:39:44;;;;;;;;;71.00;54.67;;;;;15.50;31.64;98648.75;5028834;28;9205;-75
2022/03/30 01:42:13;;;;;;;;;68.67;54.33;;;;;15.51;32.04;98646.97;5028846;28;9163;-75
2022/03/30 01:44:42;;;;;;;;;67.67;55.33;;;;;15.49;32.07;98643.53;5045547;28;9324;-74
2022/03/30 01:47:10;;;;;;;;;67.67;53.00;;;;;15.45;32.08;98642.78;5010692;28;9282;-76
2022/03/30 01:49:40;;;;;;;;;67.75;53.75;;;;;15.43;32.41;98641.97;5028596;28;9084;-74
2022/03/30 01:52:09;;;;;;;;;64.25;52.25;;;;;15.40;32.13;98639.44;5046489;28;8927;-75
2022/03/30 01:54:40;;;;;;;;;58.33;47.00;;;;;15.39;32.30;98641.22;5046692;28;8972;-76
2022/03/30 01:57:13;;;;;;;;;67.00;53.67;;;;;15.38;32.28;98634.22;5008844;28;8937;-74
2022/03/30 01:59:42;;;;;;;;;68.67;54.00;;;;;15.35;32.11;98633.50;5009106;28;8956;-73
2022/03/30 02:02:12;;;;;;;;;67.67;54.00;;;;;15.31;31.97;98630.13;5009020;28;9011;-74
2022/03/30 02:04:41;;;;;;;;;68.33;53.33;;;;;15.32;32.42;98630.97;5008228;28;9200;-74
2022/03/30 02:07:10;;;;;;;;;64.00;52.00;;;;;15.27;32.74;98625.88;4992822;28;9219;-74
2022/03/30 02:09:40;;;;;;;;;67.00;52.75;;;;;15.24;32.76;98628.63;5004714;28;9263;-74
2022/03/30 02:12:09;;;;;;;;;65.33;54.00;;;;;15.14;32.93;98633.34;5019978;28;9925;-73
2022/03/30 02:14:38;;;;;;;;;63.33;51.00;;;;;14.93;33.24;98624.41;5048874;28;8948;-76
2022/03/30 02:17:07;;;;;;;;;65.00;51.75;;;;;14.82;34.12;98627.38;5031955;28;9035;-74
2022/03/30 02:19:35;;;;;;;;;71.00;54.67;;;;;14.65;34.23;98619.19;5048561;28;8995;-74
2022/03/30 02:22:04;;;;;;;;;66.67;52.67;;;;;14.56;34.15;98620.31;5052777;28;8939;-77
2022/03/30 02:24:33;;;;;;;;;63.50;50.50;;;;;14.52;34.61;98623.94;4999470;28;8952;-74
2022/03/30 02:27:03;;;;;;;;;64.00;51.75;;;;;14.54;34.52;98616.88;5048660;28;8834;-75
2022/03/30 02:29:31;;;;;;;;;63.75;50.75;;;;;14.54;34.48;98622.13;5071817;28;8829;-73
2022/03/30 02:32:04;;;;;;;;;63.00;50.75;;;;;14.52;34.86;98616.06;5090907;28;8861;-73
2022/03/30 02:34:33;;;;;;;;;60.25;50.00;;;;;14.54;34.33;98627.38;5091283;28;8844;-74
2022/03/30 02:37:01;;;;;;;;;60.25;47.50;;;;;14.44;34.82;98615.44;5090907;28;8963;-74
2022/03/30 02:39:30;;;;;;;;;57.00;48.00;;;;;14.46;35.05;98618.91;5088227;28;8854;-73
2022/03/30 02:41:59;;;;;;;;;54.00;45.50;;;;;14.35;34.78;98605.25;5104809;28;8971;-73
2022/03/30 02:44:29;;;;;;;;;56.75;46.00;;;;;14.35;34.89;98615.75;5055056;28;8864;-73
2022/03/30 02:46:58;;;;;;;;;54.50;46.50;;;;;14.41;34.76;98605.91;5072810;28;8848;-73
2022/03/30 02:49:26;;;;;;;;;58.00;47.50;;;;;14.37;34.92;98601.66;5090838;28;8840;-76
2022/03/30 02:51:55;;;;;;;;;62.25;48.50;;;;;14.38;35.05;98613.84;5072415;28;8889;-75
2022/03/30 02:54:24;;;;;;;;;56.25;46.00;;;;;14.41;35.38;98610.31;5101238;28;8858;-74
2022/03/30 02:56:53;;;;;;;;;59.50;48.00;;;;;14.27;35.62;98602.00;5092993;28;8858;-74
2022/03/30 02:59:21;;;;;;;;;59.25;48.50;;;;;14.34;35.26;98604.38;5109878;28;8949;-75
2022/03/30 03:01:54;;;;;;;;;47.67;37.67;;;;;14.37;35.56;98598.19;5092967;28;8942;-72
2022/03/30 03:04:24;;;;;;;;;58.50;48.00;;;;;14.21;35.24;98595.16;5089581;28;8865;-72
2022/03/30 03:06:53;;;;;;;;;58.50;48.50;;;;;14.22;35.92;98602.16;5090443;28;8861;-73
2022/03/30 03:09:21;;;;;;;;;60.00;50.00;;;;;14.23;35.51;98606.47;5090147;28;8853;-76
2022/03/30 03:11:50;;;;;;;;;63.75;49.25;;;;;14.37;35.05;98606.91;5104871;28;8838;-74
2022/03/30 03:14:19;;;;;;;;;59.25;48.50;;;;;14.24;35.29;98609.03;5109211;28;8966;-73
2022/03/30 03:16:48;;;;;;;;;59.25;48.75;;;;;14.27;35.72;98605.47;5092123;28;10243;-75
2022/03/30 03:19:19;;;;;;;;;58.75;48.00;;;;;14.33;35.28;98609.66;5110403;28;8876;-76
2022/03/30 03:21:47;;;;;;;;;59.00;47.75;;;;;14.23;35.78;98603.84;5110154;28;8984;-73
2022/03/30 03:24:16;;;;;;;;;49.50;38.50;;;;;14.30;35.46;98602.75;5088538;28;8844;-75
2022/03/30 03:26:45;;;;;;;;;54.75;46.00;;;;;14.17;36.09;98606.66;5055153;28;8856;-75
2022/03/30 03:29:13;;;;;;;;;41.25;35.50;;;;;14.30;35.58;98596.66;5109102;28;8865;-76
2022/03/30 03:31:42;;;;;;;;;53.50;42.75;;;;;14.27;35.69;98600.22;5075537;28;8930;-73
2022/03/30 03:34:12;;;;;;;;;54.25;41.75;;;;;14.32;35.93;98586.97;5108227;28;8845;-75
2022/03/30 03:36:41;;;;;;;;;46.25;40.00;;;;;14.42;35.63;98589.28;5050607;28;8860;-75
2022/03/30 03:39:10;;;;;;;;;57.50;44.00;;;;;14.52;35.84;98591.59;5067406;28;8875;-72
2022/03/30 03:41:39;;;;;;;;;51.00;41.25;;;;;14.39;36.26;98584.13;5066717;28;8987;-74
2022/03/30 03:44:07;;;;;;;;;51.00;41.75;;;;;14.36;36.30;98583.34;5069004;28;8867;-77
2022/03/30 03:46:36;;;;;;;;;54.75;43.00;;;;;14.17;36.38;98590.94;5087095;28;9074;-74
2022/03/30 03:49:05;;;;;;;;;47.25;41.25;;;;;14.30;35.94;98584.41;5086741;28;8852;-75
2022/03/30 03:51:33;;;;;;;;;44.50;39.25;;;;;14.20;36.34;98575.13;5086815;28;8853;-73
2022/03/30 03:54:04;;;;;;;;;52.50;39.25;;;;;14.25;36.15;98578.44;5070460;28;8871;-74
2022/03/30 03:56:32;;;;;;;;;47.25;38.50;;;;;14.21;36.60;98582.06;5032935;28;8941;-74
2022/03/30 03:59:01;;;;;;;;;48.25;40.25;;;;;14.36;36.65;98571.09;5066762;28;8860;-73
2022/03/30 04:01:30;;;;;;;;;49.25;41.25;;;;;14.34;37.09;98578.16;5083649;28;8877;-75
2022/03/30 04:03:59;;;;;;;;;33.50;31.25;;;;;14.48;36.79;98582.09;5022685;28;12538;-74
2022/03/30 04:06:31;;;;;;;;;68.67;53.00;;;;;14.57;36.91;98580.09;5036611;28;9609;-76
2022/03/30 04:09:00;;;;;;;;;49.50;40.75;;;;;14.38;36.46;98577.13;5097378;28;9688;-76
2022/03/30 04:11:31;;;;;;;;;49.25;40.00;;;;;14.22;37.11;98575.91;5090581;28;8920;-75
2022/03/30 04:14:00;;;;;;;;;47.25;40.00;;;;;14.10;38.17;98576.28;5072953;28;8855;-73
2022/03/30 04:16:29;;;;;;;;;45.50;39.50;;;;;13.88;38.64;98574.31;5106589;28;8867;-73
2022/03/30 04:18:57;;;;;;;;;49.75;39.25;;;;;14.08;38.23;98575.47;5089853;28;8860;-75
2022/03/30 04:21:26;;;;;;;;;50.50;42.00;;;;;14.21;38.22;98579.44;5096892;28;8884;-75
2022/03/30 04:23:54;;;;;;;;;53.00;42.25;;;;;14.19;38.28;98582.09;5069782;28;8866;-77
2022/03/30 04:26:23;;;;;;;;;57.50;46.25;;;;;14.16;38.18;98576.13;5094261;28;8920;-73
2022/03/30 04:28:53;;;;;;;;;53.00;44.25;;;;;13.81;39.04;98578.03;5090185;28;8879;-73
2022/03/30 04:31:22;;;;;;;;;58.50;47.75;;;;;13.79;39.10;98570.19;5090095;28;8840;-77
2022/03/30 04:33:53;;;;;;;;;58.25;48.00;;;;;13.87;39.21;98572.59;5089882;28;8820;-74
2022/03/30 04:36:21;;;;;;;;;55.00;45.50;;;;;13.83;39.70;98581.44;5090924;28;8848;-74
2022/03/30 04:38:51;;;;;;;;;62.50;50.25;;;;;13.75;39.80;98581.69;5108781;28;8874;-75
2022/03/30 04:41:20;;;;;;;;;55.00;44.75;;;;;13.80;39.64;98582.41;5108109;28;8951;-76
2022/03/30 04:43:49;;;;;;;;;48.75;40.75;;;;;13.92;39.38;98581.19;5056743;28;8944;-76
2022/03/30 04:46:19;;;;;;;;;51.00;41.50;;;;;13.76;40.51;98596.50;5056674;28;8931;-73
2022/03/30 04:48:48;;;;;;;;;43.75;37.50;;;;;13.80;39.94;98586.81;5035570;28;9596;-73
2022/03/30 04:51:16;;;;;;;;;49.25;42.25;;;;;13.69;40.29;98589.72;5105773;28;8875;-75
2022/03/30 04:53:45;;;;;;;;;47.75;40.00;;;;;13.69;40.32;98594.97;5108258;28;8925;-74
2022/03/30 04:56:13;;;;;;;;;48.00;41.00;;;;;13.69;40.86;98602.81;5098425;28;8846;-74
2022/03/30 04:58:42;;;;;;;;;45.00;39.75;;;;;13.62;40.83;98598.66;5071329;28;8855;-75
2022/03/30 05:01:10;;;;;;;;;46.50;40.25;;;;;13.75;40.42;98584.28;5097459;28;8889;-74
2022/03/30 05:03:41;;;;;;;;;47.50;40.00;;;;;13.75;40.60;98591.31;5050206;28;8859;-76
2022/03/30 05:06:09;;;;;;;;;49.75;40.75;;;;;13.94;39.99;98589.00;5101566;28;8978;-75
2022/03/30 05:08:38;;;;;;;;;47.25;39.00;;;;;13.95;39.77;98590.72;5061464;28;8847;-74
2022/03/30 05:11:07;;;;;;;;;44.75;40.00;;;;;13.93;40.49;98597.75;5052956;28;8862;-74
2022/03/30 05:13:36;;;;;;;;;38.25;28.00;;;;;14.14;39.40;98602.38;5037206;28;9708;-73
2022/03/30 05:16:05;;;;;;;;;48.25;38.50;;;;;13.94;39.92;98600.34;5073316;28;8868;-74
2022/03/30 05:18:33;;;;;;;;;41.50;37.25;;;;;14.16;39.45;98605.81;5108632;28;9652;-74
2022/03/30 05:21:05;;;;;;;;;41.00;36.00;;;;;14.20;39.30;98611.81;5085967;28;8870;-76
2022/03/30 05:23:36;;;;;;;;;40.75;35.50;;;;;14.37;39.53;98604.28;5087443;28;8963;-75
2022/03/30 05:26:05;;;;;;;;;36.50;34.50;;;;;14.60;38.69;98594.88;5035039;28;8870;-74
2022/03/30 05:28:38;;;;;;;;;36.50;34.50;;;;;14.62;38.61;98603.53;5088445;28;8897;-74
2022/03/30 05:31:07;;;;;;;;;32.00;30.50;;;;;14.58;38.61;98591.44;5093425;28;8876;-74
2022/03/30 05:33:36;;;;;;;;;32.25;29.50;;;;;14.69;38.50;98591.94;5088888;28;8880;-74
2022/03/30 05:36:08;;;;;;;;;32.50;31.75;;;;;14.76;38.28;98589.97;5089232;28;8897;-79
2022/03/30 05:38:36;;;;;;;;;34.75;30.25;;;;;14.74;38.42;98592.63;5094556;28;9639;-75
2022/03/30 05:41:05;;;;;;;;;36.25;33.25;;;;;14.71;38.32;98594.53;5077010;28;8860;-76
2022/03/30 05:43:39;;;;;;;;;38.00;32.75;;;;;14.78;38.10;98598.63;5076363;28;8875;-77
2022/03/30 05:46:08;;;;;;;;;37.50;34.50;;;;;14.82;37.80;98598.50;5103263;28;8953;-77
2022/03/30 05:48:37;;;;;;;;;41.50;36.00;;;;;14.77;38.08;98602.19;5091965;28;8957;-76
2022/03/30 05:51:07;;;;;;;;;37.50;34.50;;;;;14.94;38.08;98589.34;5060296;28;8916;-75
2022/03/30 05:53:36;;;;;;;;;46.25;37.75;;;;;14.97;37.47;98589.25;5093441;28;8885;-75
2022/03/30 05:56:05;;;;;;;;;40.00;34.75;;;;;14.96;37.59;98594.56;5098114;28;8928;-76
2022/03/30 05:58:34;;;;;;;;;39.00;33.25;;;;;15.03;37.55;98582.94;5047528;28;8864;-79
2022/03/30 06:01:06;;;;;;;;;34.75;31.50;;;;;15.17;37.45;98588.56;5076632;28;8848;-74
2022/03/30 06:03:37;;;;;;;;;32.50;28.50;;;;;15.33;37.40;98580.16;5086123;28;8862;-76
2022/03/30 06:06:08;;;;;;;;;30.00;27.00;;;;;15.34;37.07;98581.88;5100170;28;8827;-76
2022/03/30 06:08:36;;;;;;;;;23.00;19.50;;;;;15.45;36.43;98579.72;5077839;28;8874;-74
2022/03/30 06:11:05;;;;;;;;;39.50;31.25;;;;;15.56;36.34;98585.44;5089952;28;8862;-74
2022/03/30 06:13:34;;;;;;;;;29.25;27.50;;;;;15.68;36.16;98578.88;5090981;28;8881;-75
2022/03/30 06:16:03;;;;;;;;;26.00;23.75;;;;;15.48;36.48;98584.00;5087510;28;8854;-76
2022/03/30 06:18:32;;;;;;;;;24.25;22.75;;;;;15.70;35.98;98576.19;5069906;28;8904;-75
2022/03/30 06:21:01;;;;;;;;;35.00;31.25;;;;;15.86;35.80;98572.13;5089461;28;8850;-76
2022/03/30 06:23:30;;;;;;;;;30.00;26.00;;;;;16.09;35.38;98570.38;5073005;28;8862;-74
2022/03/30 06:26:01;;;;;;;;;32.25;28.75;;;;;16.40;35.36;98572.66;5105584;28;8959;-76
2022/03/30 06:28:30;;;;;;;;;32.25;28.25;;;;;16.51;34.62;98573.06;5081503;28;9110;-77
2022/03/30 06:30:58;;;;;;;;;29.25;28.50;;;;;16.64;34.53;98564.69;5072445;28;8879;-73
2022/03/30 06:33:27;;;;;;;;;26.75;25.25;;;;;16.71;34.43;98571.41;5090877;28;8858;-74
2022/03/30 06:35:56;;;;;;;;;35.50;32.00;;;;;16.67;34.61;98572.44;5071734;28;8927;-74
2022/03/30 06:38:25;;;;;;;;;34.50;29.75;;;;;16.83;34.43;98577.97;5099013;28;8848;-73
2022/03/30 06:40:55;;;;;;;;;31.75;29.75;;;;;16.87;34.24;98575.16;5079283;28;8843;-74
2022/03/30 06:43:24;;;;;;;;;31.25;28.75;;;;;16.94;34.40;98581.03;5108378;28;9101;-76
2022/03/30 06:45:53;;;;;;;;;32.75;29.00;;;;;17.20;33.72;98571.13;5057064;28;8995;-74
2022/03/30 06:48:22;;;;;;;;;26.00;24.00;;;;;17.40;33.84;98573.75;5090641;28;8834;-74
2022/03/30 06:50:50;;;;;;;;;30.25;26.00;;;;;17.37;33.19;98573.88;5045169;28;8847;-75
2022/03/30 06:53:19;;;;;;;;;30.50;28.25;;;;;17.67;32.92;98578.72;5011812;28;8954;-72
2022/03/30 06:55:48;;;;;;;;;31.50;27.00;;;;;17.73;32.76;98586.34;5045973;28;8944;-75
2022/03/30 06:58:18;;;;;;;;;26.50;25.00;;;;;17.91;31.95;98576.78;5047020;28;8853;-75
2022/03/30 07:00:46;;;;;;;;;32.25;24.00;;;;;18.09;32.02;98572.44;5033962;28;8911;-76
2022/03/30 07:03:16;;;;;;;;;28.25;24.00;;;;;18.09;31.73;98580.34;5044458;28;10492;-75
2022/03/30 07:05:45;;;;;;;;;22.75;21.50;;;;;18.27;31.91;98583.91;5034305;28;8846;-74
2022/03/30 07:10:59;;;;;;;;;27.25;26.75;;;;;18.57;31.49;98586.00;5050294;28;8857;-74
2022/03/30 07:13:29;;;;;;;;;24.75;22.50;;;;;18.57;31.13;98580.75;5066015;28;8853;-74
2022/03/30 07:15:59;;;;;;;;;27.00;24.25;;;;;18.68;31.14;98581.06;5067003;28;8857;-74
2022/03/30 07:18:28;;;;;;;;;21.75;18.50;;;;;18.45;31.20;98577.75;5042264;28;8958;-74
2022/03/30 07:20:57;;;;;;;;;24.00;20.00;;;;;18.62;30.92;98586.63;5063625;28;8857;-76
2022/03/30 07:23:25;;;;;;;;;27.00;22.75;;;;;18.42;30.88;98582.34;5101985;28;8882;-74
2022/03/30 07:25:54;;;;;;;;;24.75;20.00;;;;;18.40;31.00;98581.56;5071955;28;8914;-75
2022/03/30 07:28:23;;;;;;;;;21.25;19.00;;;;;18.34;31.14;98585.34;5091831;28;8860;-74
2022/03/30 07:30:53;;;;;;;;;25.25;24.75;;;;;18.26;31.36;98598.03;5080012;28;8923;-74
2022/03/30 07:33:23;;;;;;;;;24.50;22.75;;;;;18.50;31.35;98601.28;5090273;28;8878;-76
2022/03/30 07:35:52;;;;;;;;;25.75;22.75;;;;;18.70;31.00;98587.13;5073468;28;8864;-77
2022/03/30 07:38:22;;;;;;;;;20.00;19.50;;;;;18.95;30.54;98586.78;5088011;28;9045;-73
2022/03/30 07:40:53;;;;;;;;;25.75;23.75;;;;;19.16;30.64;98595.41;5069823;28;8889;-75
2022/03/30 07:43:21;;;;;;;;;22.60;20.20;;;;;19.34;30.33;98604.19;5108756;28;9252;-74
2022/03/30 07:45:51;;;;;;;;;22.00;20.25;;;;;19.54;29.95;98594.38;5107945;28;8848;-74
2022/03/30 07:48:21;;;;;;;;;20.00;20.00;;;;;19.63;29.59;98600.03;5083682;28;8888;-77
2022/03/30 07:50:50;;;;;;;;;19.50;18.75;;;;;19.61;29.10;98598.41;5094168;28;8831;-75
2022/03/30 07:53:19;;;;;;;;;24.25;22.00;;;;;19.55;29.27;98601.38;5074965;28;8861;-75
2022/03/30 07:55:48;;;;;;;;;24.50;23.50;;;;;19.62;29.12;98602.75;5043906;28;8888;-75
2022/03/30 07:58:17;;;;;;;;;24.00;23.75;;;;;19.74;29.31;98596.84;5028696;28;8860;-76
2022/03/30 08:00:45;;;;;;;;;24.20;21.00;;;;;19.63;28.91;98593.88;5029337;28;8957;-76
2022/03/30 08:03:14;;;;;;;;;25.25;22.00;;;;;19.50;29.43;98598.97;5029435;28;8856;-75
2022/03/30 08:05:45;;;;;;;;;15.00;13.25;;;;;19.50;29.03;98600.75;5046005;28;8936;-75
2022/03/30 08:08:13;;;;;;;;;26.75;25.00;;;;;19.62;28.69;98597.44;5045728;28;8945;-74
2022/03/30 08:10:42;;;;;;;;;22.25;21.75;;;;;19.78;28.69;98601.03;4997027;28;8891;-76
2022/03/30 08:13:12;;;;;;;;;18.50;17.00;;;;;19.81;28.51;98592.06;5045201;28;8940;-74
2022/03/30 08:15:42;;;;;;;;;21.25;20.50;;;;;20.08;28.45;98584.44;5029532;28;8875;-75
2022/03/30 08:18:12;;;;;;;;;24.20;21.40;;;;;20.28;28.16;98590.41;5029391;28;8921;-76
2022/03/30 08:23:28;;;;;;;;;31.50;25.50;;;;;20.04;27.63;98586.41;5046751;28;8856;-74
2022/03/30 08:25:57;;;;;;;;;21.00;19.40;;;;;20.25;27.78;98592.28;5068400;28;8849;-74
2022/03/30 08:28:27;;;;;;;;;21.80;19.00;;;;;20.36;27.25;98593.47;5090044;28;8852;-75
2022/03/30 08:30:56;;;;;;;;;19.80;19.80;;;;;20.29;27.05;98584.19;5078445;28;8889;-75
2022/03/30 08:33:26;;;;;;;;;32.00;29.25;;;;;20.41;27.13;98588.78;5091010;28;8988;-75
2022/03/30 08:35:56;;;;;;;;;13.75;11.00;;;;;20.60;26.96;98589.50;5068724;28;8862;-76
2022/03/30 08:38:24;;;;;;;;;21.00;19.60;;;;;20.73;26.44;98580.84;5073927;28;8870;-77
2022/03/30 08:40:57;;;;;;;;;23.50;21.50;;;;;20.66;26.42;98593.56;5089779;28;8916;-75
2022/03/30 08:43:26;;;;;;;;;23.50;21.00;;;;;20.60;26.30;98589.50;5090403;28;8859;-77
2022/03/30 08:45:59;;;;;;;;;24.50;20.50;;;;;20.53;26.56;98581.94;5070187;28;8854;-77
2022/03/30 08:48:28;;;;;;;;;24.25;20.75;;;;;20.65;27.30;98586.56;5102227;28;8890;-74
2022/03/30 08:50:58;;;;;;;;;22.00;20.20;;;;;20.68;26.59;98583.75;5089398;28;9021;-76
2022/03/30 08:53:28;;;;;;;;;24.25;22.25;;;;;20.88;26.51;98587.06;5089175;28;8856;-76
2022/03/30 08:55:58;;;;;;;;;24.20;22.80;;;;;21.01;26.28;98591.53;5070773;28;8855;-77
2022/03/30 08:58:28;;;;;;;;;21.00;20.00;;;;;20.86;26.48;98591.59;5070392;28;8882;-75
2022/03/30 09:01:07;;;;;;;;;21.25;20.25;;;;;20.63;26.59;98593.75;5031442;28;8870;-77
2022/03/30 09:03:36;;;;;;;;;22.00;20.00;;;;;20.89;26.47;98581.66;5101898;28;8856;-76
2022/03/30 09:06:05;;;;;;;;;26.50;23.25;;;;;21.13;26.75;98578.50;5083025;28;8858;-77
2022/03/30 09:08:42;;;;;;;;;25.75;21.75;;;;;20.97;25.84;98575.91;5080302;28;8846;-77
2022/03/30 09:11:12;;;;;;;;;26.25;25.50;;;;;20.84;26.32;98578.41;5087990;28;8862;-78
2022/03/30 09:13:42;;;;;;;;;28.50;25.75;;;;;20.94;26.48;98584.88;5083540;28;8859;-76
2022/03/30 09:16:11;;;;;;;;;24.25;22.50;;;;;21.13;25.98;98576.69;5072604;28;8870;-76
2022/03/30 09:18:40;;;;;;;;;25.25;22.50;;;;;21.06;26.61;98575.38;5085918;28;8846;-77
2022/03/30 09:21:09;;;;;;;;;26.50;23.00;;;;;21.05;26.32;98584.25;5080982;28;8884;-78
2022/03/30 09:23:47;;;;;;;;;27.25;25.75;;;;;21.21;26.35;98579.75;5075872;28;8858;-75
2022/03/30 09:26:18;;;;;;;;;31.50;30.00;;;;;21.42;26.36;98576.75;5086613;28;8847;-76
2022/03/30 09:28:47;;;;;;;;;24.00;21.75;;;;;21.58;25.25;98577.53;5003158;28;8854;-76
2022/03/30 09:31:16;;;;;;;;;24.50;23.00;;;;;21.16;25.73;98575.69;5107863;28;8890;-79
2022/03/30 09:33:44;;;;;;;;;24.75;21.00;;;;;21.43;25.92;98581.09;5090019;28;8836;-77
2022/03/30 09:36:27;;;;;;;;;26.00;24.50;;;;;21.52;25.61;98575.28;5089715;28;8852;-79
2022/03/30 09:38:56;;;;;;;;;27.75;26.50;;;;;21.54;25.37;98578.69;5089737;28;8879;-78
2022/03/30 09:41:26;;;;;;;;;27.75;24.50;;;;;21.57;25.68;98564.41;5090532;28;8925;-76
2022/03/30 09:44:04;;;;;;;;;26.50;25.00;;;;;21.49;25.21;98564.84;5090266;28;8840;-79
2022/03/30 09:46:33;;;;;;;;;26.25;24.50;;;;;21.52;24.90;98547.91;5107950;28;8926;-75
2022/03/30 09:49:02;;;;;;;;;28.00;26.00;;;;;21.64;25.03;98552.44;5089725;28;8832;-77
2022/03/30 09:51:31;;;;;;;;;25.25;24.00;;;;;21.68;24.92;98546.03;5081346;28;8856;-75
2022/03/30 09:54:00;;;;;;;;;27.25;24.75;;;;;21.55;25.09;98547.69;5089281;28;8848;-76
2022/03/30 09:56:32;;;;;;;;;30.75;26.25;;;;;21.74;24.64;98548.28;5072854;28;8852;-76
2022/03/30 09:59:05;;;;;;;;;23.50;22.50;;;;;21.69;24.49;98546.88;5107874;28;8859;-76
2022/03/30 10:01:34;;;;;;;;;24.50;22.25;;;;;21.32;24.63;98542.00;5107438;28;8880;-78
2022/03/30 10:04:08;;;;;;;;;28.50;27.50;;;;;21.19;24.96;98548.97;5089984;28;8867;-75
2022/03/30 10:06:40;;;;;;;;;26.25;22.75;;;;;21.55;24.56;98540.63;5044776;28;8855;-75
2022/03/30 10:09:15;;;;;;;;;29.25;26.75;;;;;21.34;24.86;98531.28;5069376;28;8899;-76
2022/03/30 10:11:46;;;;;;;;;25.50;23.25;;;;;21.58;24.91;98528.94;5087461;28;8873;-79
2022/03/30 10:14:15;;;;;;;;;26.00;24.50;;;;;21.71;24.15;98524.56;5035836;28;8911;-74
2022/03/30 10:16:45;;;;;;;;;24.50;23.50;;;;;21.98;24.74;98518.47;5090397;28;8862;-77
2022/03/30 10:19:14;;;;;;;;;25.25;24.00;;;;;22.04;24.05;98510.13;5076459;28;8937;-75
2022/03/30 10:21:56;;;;;;;;;26.50;23.50;;;;;22.06;23.25;98515.31;5073629;28;8862;-76
2022/03/30 10:24:49;;;;;;;;;24.00;22.20;;;;;21.74;24.21;98511.13;5093451;28;8864;-76
2022/03/30 10:27:28;;;;;;;;;25.00;22.50;;;;;21.80;24.52;98512.53;5093323;28;9042;-76
2022/03/30 10:30:01;;;;;;;;;25.50;23.50;;;;;22.09;24.57;98505.34;5093506;28;8872;-76
2022/03/30 10:32:34;;;;;;;;;24.50;22.50;;;;;22.28;23.86;98510.34;5092831;28;8860;-76
2022/03/30 10:35:07;;;;;;;;;25.25;23.00;;;;;22.17;22.88;98505.72;5109164;28;8848;-77
2022/03/30 10:37:38;;;;;;;;;24.75;22.75;;;;;22.20;23.11;98497.53;5093147;28;8860;-77
2022/03/30 10:40:18;;;;;;;;;26.00;23.00;;;;;22.29;23.07;98495.28;5092654;28;8891;-75
2022/03/30 10:43:00;;;;;;;;;23.50;22.25;;;;;22.09;23.15;98488.59;5091303;28;8860;-76
2022/03/30 10:45:41;;;;;;;;;26.75;23.50;;;;;22.32;22.72;98498.56;5076166;28;8856;-75
2022/03/30 10:48:13;;;;;;;;;23.80;22.40;;;;;22.05;22.95;98485.28;5092651;28;8859;-78
2022/03/30 10:50:44;;;;;;;;;20.00;18.00;;;;;22.27;23.31;98482.09;5092373;28;8905;-76
2022/03/30 10:53:42;;;;;;;;;24.20;20.80;;;;;22.07;22.37;98477.22;5110036;28;9704;-75
2022/03/30 10:56:32;;;;;;;;;23.20;21.40;;;;;22.11;22.92;98476.06;5058104;28;8856;-78
2022/03/30 10:59:13;;;;;;;;;22.20;21.60;;;;;22.38;23.27;98478.72;5092079;28;8880;-74
2022/03/30 11:01:43;;;;;;;;;24.75;22.00;;;;;22.44;23.17;98474.81;5091998;28;8976;-77
2022/03/30 11:04:25;;;;;;;;;23.00;20.80;;;;;22.77;22.73;98467.22;5072641;28;9030;-76
2022/03/30 11:07:41;;;;;;;;;32.50;29.25;;;;;23.04;22.63;98468.97;5092249;28;8844;-76
2022/03/30 11:10:29;;;;;;;;;28.20;25.20;;;;;22.83;21.84;98457.13;5011165;28;8868;-74
2022/03/30 11:13:24;;;;;;;;;26.25;26.25;;;;;21.86;22.95;98459.06;5028646;28;8852;-76
2022/03/30 11:16:12;;;;;;;;;20.75;20.75;;;;;22.25;22.66;98454.81;5018067;28;8859;-74
2022/03/30 11:19:00;;;;;;;;;24.75;19.50;;;;;22.65;22.68;98445.97;5024929;28;8856;-78
2022/03/30 11:21:29;;;;;;;;;28.00;24.75;;;;;22.46;21.96;98452.53;5010442;28;9674;-80
2022/03/30 11:24:12;;;;;;;;;27.60;24.00;;;;;22.70;21.49;98447.38;5010413;28;8852;-75
2022/03/30 11:27:17;;;;;;;;;25.60;22.80;;;;;22.53;21.66;98447.63;5007381;28;8854;-75
2022/03/30 11:30:09;;;;;;;;;21.60;19.40;;;;;22.56;21.16;98447.44;4988935;28;8835;-75
2022/03/30 11:32:55;;;;;;;;;16.40;16.40;;;;;22.57;21.24;98444.69;5009347;28;8993;-76
2022/03/30 11:35:28;;;;;;;;;17.40;16.60;;;;;22.91;21.10;98436.19;5007478;28;8866;-77
2022/03/30 11:38:05;;;;;;;;;21.60;21.20;;;;;21.93;21.44;98440.94;4993271;28;8983;-76
2022/03/30 11:40:39;;;;;;;;;20.00;19.00;;;;;22.28;22.20;98438.63;4996696;28;8865;-73
2022/03/30 11:43:09;;;;;;;;;19.00;19.00;;;;;22.68;21.65;98430.63;4984050;28;8962;-77
2022/03/30 11:45:59;;;;;;;;;20.40;17.60;;;;;23.09;20.97;98420.81;4994161;28;8970;-71
2022/03/30 11:48:36;;;;;;;;;19.40;19.40;;;;;23.37;20.62;98419.72;5050550;28;8849;-75
2022/03/30 11:51:08;;;;;;;;;20.80;16.80;;;;;23.28;19.96;98415.03;5067583;28;8873;-75
2022/03/30 11:53:37;;;;;;;;;20.60;18.60;;;;;22.94;20.58;98406.75;5066614;28;8845;-74